createdAt,value
2023-11-19T00:02:28.916Z,17.10
2023-11-19T00:05:04.830Z,16.40
2023-11-19T00:07:53.657Z,15.90
2023-11-19T00:10:28.993Z,20.60
2023-11-19T00:13:17.788Z,19.40
2023-11-19T00:15:52.787Z,16.30
2023-11-19T00:18:41.672Z,18.30
2023-11-19T00:21:16.756Z,19.30
2023-11-19T00:24:06.851Z,19.60
2023-11-19T00:26:41.747Z,18.30
2023-11-19T00:29:30.753Z,17.70
2023-11-19T00:32:13.715Z,27.30
2023-11-19T00:35:09.652Z,25.20
2023-11-19T00:38:05.678Z,26.60
2023-11-19T00:41:01.703Z,22.70
2023-11-19T00:43:57.772Z,22.00
2023-11-19T00:46:40.242Z,22.80
2023-11-19T00:49:28.691Z,19.90
2023-11-19T00:52:04.622Z,24.90
2023-11-19T00:54:53.685Z,21.30
2023-11-19T00:57:42.719Z,21.00
2023-11-19T01:00:40.671Z,23.10
2023-11-19T01:03:29.872Z,19.50
2023-11-19T01:06:06.152Z,22.00
2023-11-19T01:08:54.689Z,24.70
2023-11-19T01:11:30.804Z,22.00
2023-11-19T01:14:19.721Z,23.50
2023-11-19T01:16:57.914Z,23.10
2023-11-19T01:19:46.659Z,35.10
2023-11-19T01:22:22.543Z,34.30
2023-11-19T01:25:13.777Z,33.50
2023-11-19T01:27:51.468Z,30.20
2023-11-19T01:30:40.617Z,28.80
2023-11-19T01:33:22.657Z,30.00
2023-11-19T01:36:18.631Z,26.80
2023-11-19T01:39:14.645Z,25.70
2023-11-19T01:41:58.587Z,27.80
2023-11-19T01:44:47.640Z,23.70
2023-11-19T01:47:23.101Z,23.70
2023-11-19T01:50:13.661Z,21.70
2023-11-19T01:52:49.674Z,20.30
2023-11-19T01:55:39.646Z,17.60
2023-11-19T01:58:15.207Z,20.10
2023-11-19T02:01:03.838Z,18.60
2023-11-19T02:03:40.713Z,26.50
2023-11-19T02:06:29.740Z,23.70
2023-11-19T02:09:09.174Z,23.70
2023-11-19T02:11:59.618Z,22.70
2023-11-19T02:14:35.091Z,21.10
2023-11-19T02:17:45.654Z,20.60
2023-11-19T02:20:21.498Z,17.70
2023-11-19T02:23:10.635Z,19.80
2023-11-19T02:25:52.519Z,17.90
2023-11-19T02:28:41.626Z,18.60
2023-11-19T02:31:23.807Z,20.30
2023-11-19T02:34:07.779Z,20.10
2023-11-19T02:36:57.776Z,18.50
2023-11-19T02:39:32.751Z,18.00
2023-11-19T02:42:22.604Z,17.90
2023-11-19T02:44:57.704Z,17.50
2023-11-19T02:47:46.730Z,26.30
2023-11-19T02:50:26.692Z,27.50
2023-11-19T02:53:15.611Z,24.20
2023-11-19T02:55:53.700Z,21.70
2023-11-19T02:58:49.637Z,17.20
2023-11-19T03:01:38.688Z,21.50
2023-11-19T03:04:13.915Z,19.70
2023-11-19T03:07:02.637Z,20.30
2023-11-19T03:09:37.826Z,18.30
2023-11-19T03:12:26.774Z,20.40
2023-11-19T03:15:02.867Z,20.20
2023-11-19T03:17:52.669Z,18.90
2023-11-19T03:20:30.538Z,17.40
2023-11-19T03:23:19.783Z,21.70
2023-11-19T03:25:54.750Z,20.00
2023-11-19T03:28:43.706Z,16.80
2023-11-19T03:31:18.698Z,28.20
2023-11-19T03:34:07.672Z,25.20
2023-11-19T03:36:42.719Z,25.30
2023-11-19T03:39:32.736Z,25.30
2023-11-19T03:42:07.838Z,21.20
2023-11-19T03:44:57.720Z,20.10
2023-11-19T03:47:32.879Z,21.10
2023-11-19T03:50:23.761Z,22.10
2023-11-19T03:52:58.799Z,17.20
2023-11-19T03:55:47.672Z,18.90
2023-11-19T03:58:22.696Z,18.10
2023-11-19T04:01:18.691Z,19.00
2023-11-19T04:03:53.830Z,19.30
2023-11-19T04:06:42.600Z,16.10
2023-11-19T04:09:18.774Z,16.70
2023-11-19T04:12:01.705Z,22.20
2023-11-19T04:14:44.721Z,27.00
2023-11-19T04:17:19.717Z,21.80
2023-11-19T04:19:55.041Z,23.10
2023-11-19T04:22:36.851Z,22.00
2023-11-19T04:25:15.135Z,23.90
2023-11-19T04:27:51.063Z,22.00
2023-11-19T04:30:32.649Z,22.00
2023-11-19T04:33:07.720Z,19.80
2023-11-19T04:35:43.131Z,21.60
2023-11-19T04:38:24.601Z,22.80
2023-11-19T04:41:01.490Z,23.00
2023-11-19T04:43:50.619Z,19.80
2023-11-19T04:46:26.046Z,19.50
2023-11-19T04:49:14.632Z,19.40
2023-11-19T04:51:54.882Z,28.00
2023-11-19T04:54:43.709Z,29.50
2023-11-19T04:57:20.802Z,29.20
2023-11-19T05:02:49.967Z,25.70
2023-11-19T05:05:38.853Z,24.40
2023-11-19T05:08:15.821Z,24.60
2023-11-19T05:11:05.595Z,21.10
2023-11-19T05:13:49.707Z,22.30
2023-11-19T05:16:31.832Z,23.30
2023-11-19T05:19:13.699Z,21.00
2023-11-19T05:21:55.656Z,20.40
2023-11-19T05:24:38.682Z,16.60
2023-11-19T05:27:21.566Z,18.40
2023-11-19T05:30:03.715Z,17.60
2023-11-19T05:32:45.684Z,23.80
2023-11-19T05:35:27.806Z,23.70
2023-11-19T05:38:10.622Z,21.60
2023-11-19T05:40:59.586Z,21.90
2023-11-19T05:43:55.694Z,19.20
2023-11-19T05:46:51.704Z,18.70
2023-11-19T05:49:47.671Z,17.10
2023-11-19T05:52:43.687Z,15.40
2023-11-19T05:55:39.576Z,15.60
2023-11-19T05:58:41.664Z,14.80
2023-11-19T06:01:37.633Z,17.30
2023-11-19T06:04:33.771Z,16.00
2023-11-19T06:07:22.619Z,14.30
2023-11-19T06:09:57.954Z,13.20
2023-11-19T06:12:53.652Z,18.30
2023-11-19T06:15:49.775Z,19.40
2023-11-19T06:18:45.653Z,21.60
2023-11-19T06:21:41.671Z,20.80
2023-11-19T06:24:23.941Z,16.10
2023-11-19T06:27:12.690Z,16.40
2023-11-19T06:29:48.478Z,17.20
2023-11-19T06:32:40.714Z,16.20
2023-11-19T06:35:15.856Z,15.40
2023-11-19T06:38:14.556Z,16.90
2023-11-19T06:41:10.589Z,15.20
2023-11-19T06:44:07.549Z,14.40
2023-11-19T06:47:03.747Z,15.40
2023-11-19T06:49:59.660Z,13.50
2023-11-19T06:52:55.588Z,13.10
2023-11-19T06:55:51.702Z,14.80
2023-11-19T06:58:51.638Z,20.40
2023-11-19T07:01:51.619Z,20.10
2023-11-19T07:04:47.583Z,21.40
2023-11-19T07:07:43.614Z,17.50
2023-11-19T07:10:32.656Z,15.00
2023-11-19T07:13:08.770Z,18.50
2023-11-19T07:15:57.722Z,16.80
2023-11-19T07:18:33.678Z,16.00
2023-11-19T07:21:22.584Z,13.80
2023-11-19T07:23:57.680Z,15.00
2023-11-19T07:26:54.667Z,14.00
2023-11-19T07:29:30.732Z,14.60
2023-11-19T07:32:21.614Z,14.50
2023-11-19T07:34:57.811Z,13.00
2023-11-19T07:37:46.564Z,21.30
2023-11-19T07:40:21.653Z,22.90
2023-11-19T07:43:10.605Z,18.60
2023-11-19T07:45:52.719Z,15.90
2023-11-19T07:48:34.572Z,19.00
2023-11-19T07:51:18.680Z,17.30
2023-11-19T07:54:00.595Z,15.40
2023-11-19T07:56:42.702Z,16.10
2023-11-19T07:59:24.656Z,12.70
2023-11-19T08:02:06.748Z,14.80
2023-11-19T08:04:46.217Z,15.50
2023-11-19T08:07:29.578Z,15.00
2023-11-19T08:10:12.566Z,15.20
2023-11-19T08:12:47.998Z,16.00
2023-11-19T08:15:36.556Z,17.40
2023-11-19T08:18:11.940Z,19.00
2023-11-19T08:21:01.598Z,19.60
2023-11-19T08:23:38.065Z,19.60
2023-11-19T08:26:26.575Z,19.80
2023-11-19T08:29:03.279Z,19.60
2023-11-19T08:31:51.659Z,15.70
2023-11-19T08:34:26.822Z,13.50
2023-11-19T08:37:15.531Z,16.20
2023-11-19T08:39:51.850Z,18.10
2023-11-19T08:42:40.519Z,16.40
2023-11-19T08:45:15.837Z,15.10
2023-11-19T08:48:04.602Z,20.80
2023-11-19T08:50:40.040Z,18.80
2023-11-19T08:53:28.549Z,15.00
2023-11-19T08:56:04.636Z,16.80
2023-11-19T08:58:53.694Z,21.60
2023-11-19T09:01:49.639Z,21.20
2023-11-19T09:04:45.738Z,13.50
2023-11-19T09:07:41.568Z,16.80
2023-11-19T09:10:30.669Z,17.30
2023-11-19T09:13:05.673Z,14.20
2023-11-19T09:15:54.575Z,17.90
2023-11-19T09:18:29.700Z,18.50
2023-11-19T09:21:19.776Z,19.50
2023-11-19T09:23:55.634Z,19.10
2023-11-19T09:26:46.559Z,16.60
2023-11-19T09:29:22.701Z,19.50
2023-11-19T09:32:11.563Z,17.20
2023-11-19T09:34:47.976Z,23.50
2023-11-19T09:37:36.560Z,21.30
2023-11-19T09:40:20.623Z,21.50
2023-11-19T09:43:16.834Z,21.70
2023-11-19T09:46:14.574Z,22.00
2023-11-19T09:49:10.532Z,16.90
2023-11-19T09:52:06.506Z,15.30
2023-11-19T09:55:03.519Z,18.60
2023-11-19T09:58:00.549Z,18.40
2023-11-19T10:01:20.291Z,17.70
2023-11-19T10:04:12.679Z,16.50
2023-11-19T10:07:01.570Z,17.20
2023-11-19T10:09:36.608Z,17.40
2023-11-19T10:12:25.507Z,17.80
2023-11-19T10:15:04.613Z,19.70
2023-11-19T10:17:53.583Z,15.50
2023-11-19T10:20:28.849Z,25.50
2023-11-19T10:23:18.613Z,22.60
2023-11-19T10:25:54.654Z,23.60
2023-11-19T10:28:51.573Z,21.20
2023-11-19T10:31:28.675Z,18.40
2023-11-19T10:34:35.620Z,21.60
2023-11-19T10:37:11.317Z,16.30
2023-11-19T10:39:55.803Z,18.90
2023-11-19T10:45:13.598Z,16.60
2023-11-19T10:47:49.284Z,17.50
2023-11-19T10:50:32.720Z,16.50
2023-11-19T10:53:09.398Z,20.70
2023-11-19T10:55:48.672Z,18.90
2023-11-19T10:58:37.514Z,16.20
2023-11-19T11:01:34.725Z,17.30
2023-11-19T11:04:35.523Z,22.50
2023-11-19T11:07:41.282Z,23.40
2023-11-19T11:10:56.680Z,20.50
2023-11-19T11:13:55.517Z,19.40
2023-11-19T11:16:52.587Z,16.10
2023-11-19T11:19:48.555Z,15.80
2023-11-19T11:22:55.653Z,19.10
2023-11-19T11:25:59.585Z,17.10
2023-11-19T11:29:04.611Z,18.40
2023-11-19T11:32:35.893Z,16.10
2023-11-19T11:35:34.765Z,14.60
2023-11-19T11:38:36.533Z,13.70
2023-11-19T11:41:39.540Z,12.90
2023-11-19T11:45:17.561Z,14.70
2023-11-19T11:48:20.561Z,17.10
2023-11-19T11:51:16.498Z,15.20
2023-11-19T11:54:13.687Z,19.00
2023-11-19T11:57:28.581Z,21.30
2023-11-19T12:00:25.555Z,20.50
2023-11-19T12:03:22.502Z,18.70
2023-11-19T12:06:18.645Z,16.50
2023-11-19T12:09:15.624Z,16.50
2023-11-19T12:15:27.549Z,15.40
2023-11-19T12:18:23.618Z,15.90
2023-11-19T12:21:19.603Z,16.40
2023-11-19T12:24:15.484Z,20.80
2023-11-19T12:27:04.699Z,14.20
2023-11-19T12:29:50.914Z,17.00
2023-11-19T12:32:49.618Z,15.60
2023-11-19T12:35:24.871Z,21.90
2023-11-19T12:38:13.475Z,18.40
2023-11-19T12:40:48.821Z,19.80
2023-11-19T12:43:31.473Z,18.80
2023-11-19T12:46:30.682Z,17.90
2023-11-19T12:49:07.241Z,15.90
2023-11-19T12:51:42.944Z,16.60
2023-11-19T12:54:26.662Z,14.40
2023-11-19T12:57:01.827Z,13.70
2023-11-19T12:59:43.487Z,13.70
2023-11-19T13:02:25.636Z,12.50
2023-11-19T13:05:30.521Z,12.50
2023-11-19T13:08:13.643Z,14.20
2023-11-19T13:10:59.588Z,12.30
2023-11-19T13:14:01.723Z,17.10
2023-11-19T13:16:50.625Z,17.60
2023-11-19T13:19:25.997Z,14.40
2023-11-19T13:22:14.607Z,15.10
2023-11-19T13:24:49.595Z,20.00
2023-11-19T13:27:31.958Z,15.40
2023-11-19T13:32:53.927Z,10.80
2023-11-19T13:35:29.749Z,13.30
2023-11-19T13:38:11.519Z,12.60
2023-11-19T13:40:46.578Z,11.10
2023-11-19T13:43:23.541Z,12.50
2023-11-19T13:46:06.542Z,14.10
2023-11-19T13:48:41.772Z,17.60
2023-11-19T13:51:16.986Z,14.00
2023-11-19T13:53:58.649Z,12.10
2023-11-19T13:56:33.691Z,11.30
2023-11-19T13:59:29.496Z,13.00
2023-11-19T14:02:25.510Z,15.10
2023-11-19T14:08:26.041Z,10.90
2023-11-19T14:11:22.530Z,10.50
2023-11-19T14:14:18.618Z,12.00
2023-11-19T14:17:15.508Z,9.30
2023-11-19T14:20:29.482Z,15.80
2023-11-19T14:23:25.487Z,16.50
2023-11-19T14:26:14.567Z,16.50
2023-11-19T14:28:56.696Z,14.30
2023-11-19T14:31:38.755Z,13.60
2023-11-19T14:34:21.601Z,11.80
2023-11-19T14:37:03.723Z,13.70
2023-11-19T14:39:46.950Z,11.60
2023-11-19T14:42:29.665Z,11.30
2023-11-19T14:45:12.582Z,10.70
2023-11-19T14:47:55.486Z,13.30
2023-11-19T14:50:38.588Z,16.90
2023-11-19T14:53:21.793Z,15.40
2023-11-19T14:56:04.571Z,16.70
2023-11-19T14:58:54.528Z,13.80
2023-11-19T15:01:50.653Z,13.30
2023-11-19T15:04:46.593Z,12.50
2023-11-19T15:07:35.601Z,12.70
2023-11-19T15:10:13.637Z,14.50
2023-11-19T15:13:02.720Z,13.70
2023-11-19T15:15:40.169Z,13.10
2023-11-19T15:18:29.767Z,12.40
2023-11-19T15:21:05.829Z,11.90
2023-11-19T15:23:54.531Z,16.10
2023-11-19T15:26:30.737Z,16.30
2023-11-19T15:29:19.684Z,13.80
2023-11-19T15:31:55.780Z,14.40
2023-11-19T15:34:45.656Z,12.50
2023-11-19T15:37:21.620Z,12.80
2023-11-19T15:40:15.501Z,13.90
2023-11-19T15:42:58.949Z,12.30
2023-11-19T15:45:45.595Z,12.20
2023-11-19T15:48:28.795Z,11.10
2023-11-19T15:51:12.641Z,11.50
2023-11-19T15:53:54.651Z,10.40
2023-11-19T15:56:38.533Z,16.10
2023-11-19T15:59:34.540Z,15.80
2023-11-19T16:05:33.550Z,14.50
2023-11-19T16:08:30.515Z,10.50
2023-11-19T16:11:20.551Z,12.70
2023-11-19T16:13:56.723Z,10.60
2023-11-19T16:16:46.574Z,10.70
2023-11-19T16:19:22.674Z,10.10
2023-11-19T16:22:17.639Z,10.30
2023-11-19T16:24:55.678Z,9.70
2023-11-19T16:27:44.522Z,10.30
2023-11-19T16:30:27.654Z,15.00
2023-11-19T16:33:17.111Z,15.90
2023-11-19T16:36:05.200Z,14.70
2023-11-19T16:38:47.497Z,12.70
2023-11-19T16:41:42.405Z,10.10
2023-11-19T16:44:18.988Z,13.30
2023-11-19T16:47:17.693Z,11.80
2023-11-19T16:50:13.656Z,11.70
2023-11-19T16:53:11.670Z,12.00
2023-11-19T16:56:07.559Z,12.00
2023-11-19T16:59:03.625Z,12.70
2023-11-19T17:01:59.503Z,14.90
2023-11-19T17:07:51.549Z,21.60
2023-11-19T17:10:40.510Z,14.10
2023-11-19T17:13:16.927Z,13.70
2023-11-19T17:16:07.808Z,11.30
2023-11-19T17:18:44.633Z,12.30
2023-11-19T17:21:33.516Z,12.10
2023-11-19T17:24:10.186Z,11.10
2023-11-19T17:26:59.637Z,12.10
2023-11-19T17:29:35.779Z,11.90
2023-11-19T17:32:24.534Z,11.50
2023-11-19T17:35:03.407Z,13.30
2023-11-19T17:37:56.118Z,13.60
2023-11-19T17:40:31.649Z,13.50
2023-11-19T17:43:23.510Z,13.50
2023-11-19T17:46:02.356Z,11.00
2023-11-19T17:48:51.474Z,12.20
2023-11-19T17:51:28.614Z,10.80
2023-11-19T17:54:18.539Z,10.90
2023-11-19T17:56:55.204Z,11.30
2023-11-19T17:59:58.565Z,10.50
2023-11-19T18:02:57.618Z,8.50
2023-11-19T18:05:53.508Z,8.50
2023-11-19T18:08:36.809Z,14.40
2023-11-19T18:11:26.555Z,14.90
2023-11-19T18:14:17.523Z,11.70
2023-11-19T18:16:53.731Z,12.60
2023-11-19T18:19:42.502Z,11.70
2023-11-19T18:22:18.601Z,20.70
2023-11-19T18:25:07.649Z,14.20
2023-11-19T18:27:44.696Z,11.60
2023-11-19T18:30:33.483Z,13.80
2023-11-19T18:33:09.992Z,12.50
2023-11-19T18:35:59.513Z,12.40
2023-11-19T18:41:30.511Z,14.50
2023-11-19T18:44:14.476Z,15.20
2023-11-19T18:47:10.505Z,12.90
2023-11-19T18:50:06.575Z,11.60
2023-11-19T18:53:07.551Z,13.40
2023-11-19T18:58:38.632Z,10.40
2023-11-19T19:01:37.480Z,13.20
2023-11-19T19:04:36.659Z,12.90
2023-11-19T19:07:32.431Z,12.10
2023-11-19T19:10:28.656Z,16.40
2023-11-19T19:13:17.602Z,13.90
2023-11-19T19:15:53.796Z,15.90
2023-11-19T19:18:43.549Z,13.20
2023-11-19T19:21:19.631Z,15.30
2023-11-19T19:24:10.615Z,13.30
2023-11-19T19:26:48.644Z,13.60
2023-11-19T19:29:37.646Z,15.10
2023-11-19T19:32:13.540Z,17.50
2023-11-19T19:35:02.630Z,14.40
2023-11-19T19:37:38.777Z,13.40
2023-11-19T19:40:27.973Z,21.70
2023-11-19T19:43:05.671Z,19.30
2023-11-19T19:45:54.900Z,20.80
2023-11-19T19:48:30.759Z,19.00
2023-11-19T19:51:19.441Z,17.50
2023-11-19T19:53:56.022Z,14.70
2023-11-19T19:56:44.496Z,17.50
2023-11-19T19:59:20.824Z,13.90
2023-11-19T20:02:09.573Z,15.60
2023-11-19T20:07:37.516Z,20.70
2023-11-19T20:10:14.143Z,21.30
2023-11-19T20:13:04.446Z,19.70
2023-11-19T20:15:40.787Z,18.30
2023-11-19T20:18:31.871Z,17.60
2023-11-19T20:21:09.980Z,18.80
2023-11-19T20:23:58.456Z,18.50
2023-11-19T20:26:38.906Z,17.40
2023-11-19T20:29:28.348Z,19.70
2023-11-19T20:32:04.648Z,20.60
2023-11-19T20:34:53.448Z,21.40
2023-11-19T20:37:31.626Z,20.60
2023-11-19T20:40:20.508Z,20.80
2023-11-19T20:42:56.880Z,19.60
2023-11-19T20:45:45.513Z,17.50
2023-11-19T20:48:22.441Z,22.00
2023-11-19T20:51:11.491Z,19.20
2023-11-19T20:53:47.611Z,21.30
2023-11-19T20:56:36.454Z,18.80
2023-11-19T20:59:11.801Z,24.90
2023-11-19T21:02:00.576Z,24.10
2023-11-19T21:04:44.374Z,24.00
2023-11-19T21:07:26.565Z,22.80
2023-11-19T21:10:08.985Z,23.80
2023-11-19T21:12:51.643Z,22.90
2023-11-19T21:15:46.836Z,21.40
2023-11-19T21:18:26.969Z,20.90
2023-11-19T21:21:15.589Z,21.00
2023-11-19T21:23:50.892Z,20.50
2023-11-19T21:26:39.545Z,20.10
2023-11-19T21:29:15.916Z,18.40
2023-11-19T21:31:57.848Z,16.30
2023-11-19T21:34:40.741Z,15.60
2023-11-19T21:37:23.687Z,12.70
2023-11-19T21:40:06.782Z,13.90
2023-11-19T21:42:49.988Z,15.60
2023-11-19T21:45:32.645Z,14.60
2023-11-19T21:48:15.642Z,12.50
2023-11-19T21:50:51.993Z,11.90
2023-11-19T21:53:40.651Z,8.40
2023-11-19T21:56:18.320Z,10.10
2023-11-19T21:59:14.603Z,8.80
2023-11-19T22:02:10.537Z,12.40
2023-11-19T22:05:06.637Z,11.90
2023-11-19T22:11:02.724Z,11.30
2023-11-19T22:13:58.544Z,13.30
2023-11-19T22:19:44.618Z,9.80
2023-11-19T22:22:20.824Z,11.50
2023-11-19T22:25:09.671Z,14.20
2023-11-19T22:27:46.673Z,22.20
2023-11-19T22:30:35.605Z,18.90
2023-11-19T22:33:11.691Z,15.60
2023-11-19T22:36:00.743Z,11.10
2023-11-19T22:38:36.692Z,12.20
2023-11-19T22:41:25.545Z,10.40
2023-11-19T22:44:01.570Z,18.20
2023-11-19T22:46:50.423Z,13.60
2023-11-19T22:49:26.633Z,13.10
2023-11-19T22:52:15.402Z,12.80
2023-11-19T22:54:50.512Z,11.30
2023-11-19T22:57:59.809Z,12.40
2023-11-19T23:00:55.679Z,9.80
2023-11-19T23:03:51.638Z,12.10
2023-11-19T23:06:47.511Z,12.80
2023-11-19T23:09:30.402Z,14.20
2023-11-19T23:12:20.479Z,11.60
2023-11-19T23:15:00.839Z,9.80
2023-11-19T23:17:49.807Z,10.10
2023-11-19T23:20:25.746Z,9.20
2023-11-19T23:23:15.373Z,16.00
2023-11-19T23:25:51.459Z,11.50
2023-11-19T23:28:41.492Z,9.70
2023-11-19T23:31:17.017Z,10.50
2023-11-19T23:34:06.447Z,11.20
2023-11-19T23:36:41.949Z,12.00
2023-11-19T23:39:23.497Z,9.40
2023-11-19T23:42:05.363Z,12.30
2023-11-19T23:44:47.571Z,11.70
2023-11-19T23:47:29.566Z,10.80
2023-11-19T23:50:12.424Z,11.70
2023-11-19T23:52:50.080Z,10.60
2023-11-19T23:55:39.380Z,9.50
2023-11-19T23:58:15.470Z,9.20
